Kliftrans — PCDB — position and weather

sailwx.info

Track history (hours):
 
Tides and Currents Weather Stations Pressure Air Temp Water Temp Dewpoint Dewpoint Depression Visibility Wind Speed Wind Dir Waves Ship Positions

Kliftrans

Last reported at 2016-Feb-08 21:07 UTC. Time now 2016-Feb-11 15:10 UTC.
Position N 54°04' W 005°23'.

Length 88 m; draft 3.4 m.

Type: Cargo ship. MMSI: 245132000.

Date/timePositionNaut miles runAvg speedWind from/ knotsBaromVisibWave heightAir tempDewpointWater temp
2016-Feb-08 21:07N 54°04' W 005°23'6 9.2
2016-Feb-08 20:25N 54°11' W 005°22'910.7
2016-Feb-08 19:33N 54°20' W 005°20'1212.1
2016-Feb-08 18:33N 54°32' W 005°24'1211.8
2016-Feb-08 17:33N 54°42' W 005°34'1110.9
2016-Feb-08 16:33N 54°39' W 005°52'2 0.3
2016-Feb-08 07:19N 54°37' W 005°55'0 0.0
2016-Feb-08 06:31N 54°37' W 005°55'0 0.0
2016-Feb-08 04:04N 54°37' W 005°55'0 0.0
2016-Feb-08 02:31N 54°37' W 005°55'0 0.0
2016-Feb-08 01:31N 54°37' W 005°55'0 0.0
2016-Feb-08 00:31N 54°37' W 005°55'0 0.0
2016-Feb-07 23:25N 54°37' W 005°55'0 0.0
2016-Feb-07 22:25N 54°37' W 005°55'0 0.0
2016-Feb-07 21:34N 54°37' W 005°55'0 0.0
2016-Feb-07 20:30N 54°37' W 005°55'0 0.0
2016-Feb-07 19:30N 54°37' W 005°55'0 0.0
2016-Feb-07 18:30N 54°37' W 005°55'0 0.0
2016-Feb-07 17:30N 54°37' W 005°55'0 0.0
2016-Feb-07 15:12N 54°37' W 005°55'0 0.0
2016-Feb-07 13:30N 54°37' W 005°55'0 0.0
2016-Feb-07 12:27N 54°37' W 005°55'0 0.0
2016-Feb-07 11:33N 54°37' W 005°55'0 0.0
2016-Feb-07 10:33N 54°37' W 005°55'0 0.0
2016-Feb-07 09:30N 54°37' W 005°55'0 0.0
2016-Feb-07 08:33N 54°37' W 005°55'0 0.0
2016-Feb-07 07:27N 54°37' W 005°55'0 0.0
2016-Feb-07 06:27N 54°37' W 005°55'0 0.0
2016-Feb-07 05:33N 54°37' W 005°55'0 0.0
2016-Feb-07 04:33N 54°37' W 005°55'0 0.0
2016-Feb-07 02:27N 54°37' W 005°55'0 0.0
2016-Feb-07 01:30N 54°37' W 005°55'0 0.0
2016-Feb-07 00:30N 54°37' W 005°55'0 0.0
2016-Feb-06 23:33N 54°37' W 005°55'0 0.0
2016-Feb-06 22:30N 54°37' W 005°55'0 0.0
2016-Feb-06 21:27N 54°37' W 005°55'0 0.0
2016-Feb-06 20:33N 54°37' W 005°55'0 0.0
2016-Feb-06 19:33N 54°37' W 005°55'0 0.0
2016-Feb-06 18:33N 54°37' W 005°55'0 0.0
2016-Feb-06 17:30N 54°37' W 005°55'0 0.0
2016-Feb-06 16:32N 54°37' W 005°55'0 0.0
2016-Feb-06 06:23N 54°37' W 005°55'0 0.0
2016-Feb-06 05:29N 54°37' W 005°55'0 0.0
2016-Feb-06 01:08N 54°37' W 005°55'0 0.0
2016-Feb-06 00:32N 54°37' W 005°55'0 0.0
2016-Feb-05 23:23N 54°37' W 005°55'0 0.0
2016-Feb-05 22:29N 54°37' W 005°55'0 0.0
2016-Feb-05 20:17N 54°37' W 005°55'0 0.0
2016-Feb-05 19:26N 54°37' W 005°55'0 0.0
2016-Feb-05 08:22N 54°37' W 005°55'0 0.0
2016-Feb-05 06:22N 54°37' W 005°55'0 0.0
2016-Feb-05 05:28N 54°37' W 005°55'1 0.1
2016-Feb-04 21:27N 54°38' W 005°53'7 7.8
2016-Feb-04 20:33N 54°42' W 005°44'1 1.1
2016-Feb-04 19:33N 54°41' W 005°43'0 0.0
2016-Feb-04 18:33N 54°41' W 005°43'0 0.0
2016-Feb-04 17:32N 54°41' W 005°43'0 0.0
2016-Feb-04 16:29N 54°41' W 005°43'0 0.0
2016-Feb-04 15:32N 54°41' W 005°43'0 0.0
2016-Feb-04 14:32N 54°41' W 005°43'0 0.0
2016-Feb-04 13:32N 54°41' W 005°43'0 0.0
2016-Feb-04 12:32N 54°41' W 005°43'0 0.0
2016-Feb-04 11:33N 54°41' W 005°43'0 0.0
2016-Feb-04 10:33N 54°41' W 005°43'0 0.0
2016-Feb-04 09:33N 54°41' W 005°43'0 0.0
2016-Feb-04 08:33N 54°41' W 005°43'0 0.0
2016-Feb-04 07:33N 54°41' W 005°43'0 0.0
2016-Feb-04 06:33N 54°41' W 005°43'0 0.0
2016-Feb-04 05:33N 54°41' W 005°43'0 0.0
2016-Feb-04 04:33N 54°41' W 005°43'0 0.0
2016-Feb-04 03:33N 54°41' W 005°43'0 0.0
2016-Feb-04 02:33N 54°41' W 005°43'0 0.0
2016-Feb-04 01:33N 54°41' W 005°43'0 0.0
2016-Feb-04 00:33N 54°41' W 005°43'0 0.0
2016-Feb-03 23:33N 54°41' W 005°43'0 0.0
2016-Feb-03 22:33N 54°41' W 005°43'0 0.0
2016-Feb-03 21:33N 54°41' W 005°43'5 5.2
2016-Feb-03 20:33N 54°46' W 005°40'9 9.0
2016-Feb-03 19:30N 54°55' W 005°46'2110.5
2016-Feb-03 17:31N 55°14' W 005°60'1010.7
2016-Feb-03 16:33N 55°21' W 006°13'10 9.8
2016-Feb-03 15:33N 55°28' W 006°26'1010.3
2016-Feb-03 14:33N 55°36' W 006°36'10 9.7
2016-Feb-03 13:33N 55°45' W 006°44'195 7.4
2016-Feb-02 11:10N 58°41' W 004°07'4 7.3
2016-Feb-02 10:33N 58°42' W 003°58'7 7.5
2016-Feb-02 09:33N 58°42' W 003°44'8 7.4
2016-Feb-02 08:28N 58°42' W 003°28'6 7.0
2016-Feb-02 07:33N 58°43' W 003°16'7 7.2
2016-Feb-02 06:33N 58°41' W 003°03'6 6.5
2016-Feb-02 05:33N 58°35' W 003°01'3 0.1
2016-Jan-31 15:33N 58°34' W 002°54'  
Track history (hours):
 
Tides and Currents Weather Stations Pressure Air Temp Water Temp Dewpoint Dewpoint Depression Visibility Wind Speed Wind Dir Waves Ship Positions

Kliftrans

Last reported at 2016-Feb-08 21:07 UTC. Time now 2016-Feb-11 15:10 UTC.
Position N 54°04' W 005°23'.

Length 88 m; draft 3.4 m.

Type: Cargo ship. MMSI: 245132000.

Date/timePositionNaut miles runAvg speedWind from/ knotsBaromVisibWave heightAir tempDewpointWater temp
2016-Feb-08 21:07N 54°04' W 005°23'6 9.2
2016-Feb-08 20:25N 54°11' W 005°22'910.7
2016-Feb-08 19:33N 54°20' W 005°20'1212.1
2016-Feb-08 18:33N 54°32' W 005°24'1211.8
2016-Feb-08 17:33N 54°42' W 005°34'1110.9
2016-Feb-08 16:33N 54°39' W 005°52'2 0.3
2016-Feb-08 07:19N 54°37' W 005°55'0 0.0
2016-Feb-08 06:31N 54°37' W 005°55'0 0.0
2016-Feb-08 04:04N 54°37' W 005°55'0 0.0
2016-Feb-08 02:31N 54°37' W 005°55'0 0.0
2016-Feb-08 01:31N 54°37' W 005°55'0 0.0
2016-Feb-08 00:31N 54°37' W 005°55'0 0.0
2016-Feb-07 23:25N 54°37' W 005°55'0 0.0
2016-Feb-07 22:25N 54°37' W 005°55'0 0.0
2016-Feb-07 21:34N 54°37' W 005°55'0 0.0
2016-Feb-07 20:30N 54°37' W 005°55'0 0.0
2016-Feb-07 19:30N 54°37' W 005°55'0 0.0
2016-Feb-07 18:30N 54°37' W 005°55'0 0.0
2016-Feb-07 17:30N 54°37' W 005°55'0 0.0
2016-Feb-07 15:12N 54°37' W 005°55'0 0.0
2016-Feb-07 13:30N 54°37' W 005°55'0 0.0
2016-Feb-07 12:27N 54°37' W 005°55'0 0.0
2016-Feb-07 11:33N 54°37' W 005°55'0 0.0
2016-Feb-07 10:33N 54°37' W 005°55'0 0.0
2016-Feb-07 09:30N 54°37' W 005°55'0 0.0
2016-Feb-07 08:33N 54°37' W 005°55'0 0.0
2016-Feb-07 07:27N 54°37' W 005°55'0 0.0
2016-Feb-07 06:27N 54°37' W 005°55'0 0.0
2016-Feb-07 05:33N 54°37' W 005°55'0 0.0
2016-Feb-07 04:33N 54°37' W 005°55'0 0.0
2016-Feb-07 02:27N 54°37' W 005°55'0 0.0
2016-Feb-07 01:30N 54°37' W 005°55'0 0.0
2016-Feb-07 00:30N 54°37' W 005°55'0 0.0
2016-Feb-06 23:33N 54°37' W 005°55'0 0.0
2016-Feb-06 22:30N 54°37' W 005°55'0 0.0
2016-Feb-06 21:27N 54°37' W 005°55'0 0.0
2016-Feb-06 20:33N 54°37' W 005°55'0 0.0
2016-Feb-06 19:33N 54°37' W 005°55'0 0.0
2016-Feb-06 18:33N 54°37' W 005°55'0 0.0
2016-Feb-06 17:30N 54°37' W 005°55'0 0.0
2016-Feb-06 16:32N 54°37' W 005°55'0 0.0
2016-Feb-06 06:23N 54°37' W 005°55'0 0.0
2016-Feb-06 05:29N 54°37' W 005°55'0 0.0
2016-Feb-06 01:08N 54°37' W 005°55'0 0.0
2016-Feb-06 00:32N 54°37' W 005°55'0 0.0
2016-Feb-05 23:23N 54°37' W 005°55'0 0.0
2016-Feb-05 22:29N 54°37' W 005°55'0 0.0
2016-Feb-05 20:17N 54°37' W 005°55'0 0.0
2016-Feb-05 19:26N 54°37' W 005°55'0 0.0
2016-Feb-05 08:22N 54°37' W 005°55'0 0.0
2016-Feb-05 06:22N 54°37' W 005°55'0 0.0
2016-Feb-05 05:28N 54°37' W 005°55'1 0.1
2016-Feb-04 21:27N 54°38' W 005°53'7 7.8
2016-Feb-04 20:33N 54°42' W 005°44'1 1.1
2016-Feb-04 19:33N 54°41' W 005°43'0 0.0
2016-Feb-04 18:33N 54°41' W 005°43'0 0.0
2016-Feb-04 17:32N 54°41' W 005°43'0 0.0
2016-Feb-04 16:29N 54°41' W 005°43'0 0.0
2016-Feb-04 15:32N 54°41' W 005°43'0 0.0
2016-Feb-04 14:32N 54°41' W 005°43'0 0.0
2016-Feb-04 13:32N 54°41' W 005°43'0 0.0
2016-Feb-04 12:32N 54°41' W 005°43'0 0.0
2016-Feb-04 11:33N 54°41' W 005°43'0 0.0
2016-Feb-04 10:33N 54°41' W 005°43'0 0.0
2016-Feb-04 09:33N 54°41' W 005°43'0 0.0
2016-Feb-04 08:33N 54°41' W 005°43'0 0.0
2016-Feb-04 07:33N 54°41' W 005°43'0 0.0
2016-Feb-04 06:33N 54°41' W 005°43'0 0.0
2016-Feb-04 05:33N 54°41' W 005°43'0 0.0
2016-Feb-04 04:33N 54°41' W 005°43'0 0.0
2016-Feb-04 03:33N 54°41' W 005°43'0 0.0
2016-Feb-04 02:33N 54°41' W 005°43'0 0.0
2016-Feb-04 01:33N 54°41' W 005°43'0 0.0
2016-Feb-04 00:33N 54°41' W 005°43'0 0.0
2016-Feb-03 23:33N 54°41' W 005°43'0 0.0
2016-Feb-03 22:33N 54°41' W 005°43'0 0.0
2016-Feb-03 21:33N 54°41' W 005°43'5 5.2
2016-Feb-03 20:33N 54°46' W 005°40'9 9.0
2016-Feb-03 19:30N 54°55' W 005°46'2110.5
2016-Feb-03 17:31N 55°14' W 005°60'1010.7
2016-Feb-03 16:33N 55°21' W 006°13'10 9.8
2016-Feb-03 15:33N 55°28' W 006°26'1010.3
2016-Feb-03 14:33N 55°36' W 006°36'10 9.7
2016-Feb-03 13:33N 55°45' W 006°44'195 7.4
2016-Feb-02 11:10N 58°41' W 004°07'4 7.3
2016-Feb-02 10:33N 58°42' W 003°58'7 7.5
2016-Feb-02 09:33N 58°42' W 003°44'8 7.4
2016-Feb-02 08:28N 58°42' W 003°28'6 7.0
2016-Feb-02 07:33N 58°43' W 003°16'7 7.2
2016-Feb-02 06:33N 58°41' W 003°03'6 6.5
2016-Feb-02 05:33N 58°35' W 003°01'3 0.1
2016-Jan-31 15:33N 58°34' W 002°54'  

Dump ship's entire track history